Pagrindinis puslapis
METAR-TAF:

METAR-TAF

Oro uostai :

Jacareacanga, Para, Brazilija

platuma: 06-16S, ilguma: 057-44W, Aukštis: 98 m

Dabartinis oras

Ataskaita buvo paskelbta 16 minutes, ne 21:00 UTC
Vėjas 2 kt iš Pietų/Pietvakarių
Temperatūra 35°C
Drėgmė 50%
Slėgis 1008 hPa
Matomumas 10 km arba daugiau
nėra debesų žemiau 1500 m ir nėra kamuolinių lietaus debesų

METAR: SBEK 202100Z 21002KT CAVOK 35/23 Q1008

Laikas: 18:16 (21:16 UTC)


TAF: trūkstamas

Orai ataskaitas ir orų prognozės (METAR, TAF).

turimą stotys yra geltonos ir raudonos taškus žemėlapyje.

Perkelti pele per norėdami pamatyti stoties vardą.

Tada spustelėkite, norėdami matyti oro stebėjimo ir prognozės.

Norėdami pakeisti žemėlapį: spustelėkite ant žalios mygtukų su juodo kryžiaus žemyn,; žalią mygtuką su brūkšneliu, jei norite nutolinti; arba žalių rodyklių gretimoms žemėlapius.


METAR-TAF: